sensor_id;sensor_type;location;lat;lon;timestamp;P1;durP1;ratioP1;P2;durP2;ratioP2
11614;SDS011;5863;52.832;4.758;2022-10-18T00:02:20;13.80;;;4.25;;
11614;SDS011;5863;52.832;4.758;2022-10-18T00:04:47;16.40;;;3.95;;
11614;SDS011;5863;52.832;4.758;2022-10-18T00:07:14;15.00;;;3.10;;
11614;SDS011;5863;52.832;4.758;2022-10-18T00:09:40;12.02;;;3.20;;
11614;SDS011;5863;52.832;4.758;2022-10-18T00:12:13;11.70;;;3.33;;
11614;SDS011;5863;52.832;4.758;2022-10-18T00:14:39;15.45;;;3.53;;
11614;SDS011;5863;52.832;4.758;2022-10-18T00:17:06;12.85;;;3.42;;
11614;SDS011;5863;52.832;4.758;2022-10-18T00:19:33;11.30;;;3.80;;
11614;SDS011;5863;52.832;4.758;2022-10-18T00:21:59;10.15;;;4.07;;
11614;SDS011;5863;52.832;4.758;2022-10-18T00:24:26;7.20;;;3.30;;
11614;SDS011;5863;52.832;4.758;2022-10-18T00:26:53;8.88;;;3.63;;
11614;SDS011;5863;52.832;4.758;2022-10-18T00:29:21;13.38;;;3.90;;
11614;SDS011;5863;52.832;4.758;2022-10-18T00:31:47;11.07;;;3.67;;
11614;SDS011;5863;52.832;4.758;2022-10-18T00:34:15;12.38;;;4.10;;
11614;SDS011;5863;52.832;4.758;2022-10-18T00:36:42;5.20;;;3.08;;
11614;SDS011;5863;52.832;4.758;2022-10-18T00:39:13;10.20;;;3.38;;
11614;SDS011;5863;52.832;4.758;2022-10-18T00:41:41;5.95;;;2.50;;
11614;SDS011;5863;52.832;4.758;2022-10-18T00:47:10;9.40;;;3.13;;
11614;SDS011;5863;52.832;4.758;2022-10-18T00:49:39;4.47;;;2.58;;
11614;SDS011;5863;52.832;4.758;2022-10-18T00:52:08;6.80;;;2.75;;
11614;SDS011;5863;52.832;4.758;2022-10-18T00:54:40;7.53;;;2.83;;
11614;SDS011;5863;52.832;4.758;2022-10-18T00:57:12;4.90;;;2.83;;
11614;SDS011;5863;52.832;4.758;2022-10-18T00:59:40;5.75;;;2.42;;
11614;SDS011;5863;52.832;4.758;2022-10-18T01:02:07;4.47;;;2.38;;
11614;SDS011;5863;52.832;4.758;2022-10-18T01:04:39;3.83;;;2.28;;
11614;SDS011;5863;52.832;4.758;2022-10-18T01:07:08;3.42;;;1.90;;
11614;SDS011;5863;52.832;4.758;2022-10-18T01:09:40;2.92;;;2.10;;
11614;SDS011;5863;52.832;4.758;2022-10-18T01:12:15;4.15;;;2.10;;
11614;SDS011;5863;52.832;4.758;2022-10-18T01:14:49;5.70;;;2.40;;
11614;SDS011;5863;52.832;4.758;2022-10-18T01:17:25;4.88;;;2.50;;
11614;SDS011;5863;52.832;4.758;2022-10-18T01:20:01;7.18;;;2.67;;
11614;SDS011;5863;52.832;4.758;2022-10-18T01:22:49;8.07;;;2.65;;
11614;SDS011;5863;52.832;4.758;2022-10-18T01:25:26;7.57;;;2.70;;
11614;SDS011;5863;52.832;4.758;2022-10-18T01:28:03;5.95;;;2.63;;
11614;SDS011;5863;52.832;4.758;2022-10-18T01:30:44;6.57;;;2.80;;
11614;SDS011;5863;52.832;4.758;2022-10-18T01:33:24;5.47;;;2.60;;
11614;SDS011;5863;52.832;4.758;2022-10-18T01:35:57;9.02;;;2.88;;
11614;SDS011;5863;52.832;4.758;2022-10-18T01:38:31;6.28;;;2.53;;
11614;SDS011;5863;52.832;4.758;2022-10-18T01:41:00;8.18;;;2.60;;
11614;SDS011;5863;52.832;4.758;2022-10-18T01:43:28;4.70;;;2.33;;
11614;SDS011;5863;52.832;4.758;2022-10-18T01:45:59;9.73;;;2.92;;
11614;SDS011;5863;52.832;4.758;2022-10-18T01:48:26;7.05;;;3.03;;
11614;SDS011;5863;52.832;4.758;2022-10-18T01:50:52;7.85;;;3.10;;
11614;SDS011;5863;52.832;4.758;2022-10-18T01:53:23;7.45;;;2.72;;
11614;SDS011;5863;52.832;4.758;2022-10-18T01:55:59;6.50;;;2.50;;
11614;SDS011;5863;52.832;4.758;2022-10-18T01:58:55;4.93;;;2.33;;
11614;SDS011;5863;52.832;4.758;2022-10-18T02:01:35;4.32;;;1.92;;
11614;SDS011;5863;52.832;4.758;2022-10-18T02:04:10;7.68;;;2.17;;
11614;SDS011;5863;52.832;4.758;2022-10-18T02:06:44;4.57;;;2.22;;
11614;SDS011;5863;52.832;4.758;2022-10-18T02:09:15;6.00;;;1.98;;
11614;SDS011;5863;52.832;4.758;2022-10-18T02:11:47;9.50;;;2.25;;
11614;SDS011;5863;52.832;4.758;2022-10-18T02:14:17;8.60;;;2.67;;
11614;SDS011;5863;52.832;4.758;2022-10-18T02:16:47;9.18;;;2.30;;
11614;SDS011;5863;52.832;4.758;2022-10-18T02:19:17;8.02;;;1.88;;
11614;SDS011;5863;52.832;4.758;2022-10-18T02:21:50;6.47;;;1.95;;
11614;SDS011;5863;52.832;4.758;2022-10-18T02:24:18;8.13;;;2.00;;
11614;SDS011;5863;52.832;4.758;2022-10-18T02:26:48;4.05;;;2.03;;
11614;SDS011;5863;52.832;4.758;2022-10-18T02:29:15;7.60;;;2.20;;
11614;SDS011;5863;52.832;4.758;2022-10-18T02:34:30;9.65;;;2.42;;
11614;SDS011;5863;52.832;4.758;2022-10-18T02:37:02;10.40;;;2.00;;
11614;SDS011;5863;52.832;4.758;2022-10-18T02:39:30;7.85;;;1.98;;
11614;SDS011;5863;52.832;4.758;2022-10-18T02:42:00;8.73;;;1.83;;
11614;SDS011;5863;52.832;4.758;2022-10-18T02:44:30;4.90;;;1.65;;
11614;SDS011;5863;52.832;4.758;2022-10-18T02:46:57;5.55;;;1.45;;
11614;SDS011;5863;52.832;4.758;2022-10-18T02:49:25;6.82;;;1.77;;
11614;SDS011;5863;52.832;4.758;2022-10-18T02:51:52;8.10;;;1.85;;
11614;SDS011;5863;52.832;4.758;2022-10-18T02:54:19;6.15;;;1.60;;
11614;SDS011;5863;52.832;4.758;2022-10-18T02:56:45;6.88;;;1.92;;
11614;SDS011;5863;52.832;4.758;2022-10-18T02:59:12;9.05;;;1.63;;
11614;SDS011;5863;52.832;4.758;2022-10-18T03:01:39;6.75;;;1.75;;
11614;SDS011;5863;52.832;4.758;2022-10-18T03:04:07;7.38;;;1.70;;
11614;SDS011;5863;52.832;4.758;2022-10-18T03:06:34;8.00;;;1.70;;
11614;SDS011;5863;52.832;4.758;2022-10-18T03:09:01;8.02;;;1.67;;
11614;SDS011;5863;52.832;4.758;2022-10-18T03:11:28;6.32;;;1.73;;
11614;SDS011;5863;52.832;4.758;2022-10-18T03:13:56;4.95;;;1.58;;
11614;SDS011;5863;52.832;4.758;2022-10-18T03:16:23;7.32;;;1.67;;
11614;SDS011;5863;52.832;4.758;2022-10-18T03:18:49;5.72;;;1.80;;
11614;SDS011;5863;52.832;4.758;2022-10-18T03:21:17;7.97;;;1.75;;
11614;SDS011;5863;52.832;4.758;2022-10-18T03:23:51;6.63;;;1.77;;
11614;SDS011;5863;52.832;4.758;2022-10-18T03:26:18;10.70;;;1.65;;
11614;SDS011;5863;52.832;4.758;2022-10-18T03:28:45;3.50;;;1.60;;
11614;SDS011;5863;52.832;4.758;2022-10-18T03:31:12;7.22;;;1.75;;
11614;SDS011;5863;52.832;4.758;2022-10-18T03:33:38;11.13;;;2.20;;
11614;SDS011;5863;52.832;4.758;2022-10-18T03:36:05;7.10;;;1.58;;
11614;SDS011;5863;52.832;4.758;2022-10-18T03:38:33;5.43;;;1.65;;
11614;SDS011;5863;52.832;4.758;2022-10-18T03:41:10;8.65;;;1.88;;
11614;SDS011;5863;52.832;4.758;2022-10-18T03:43:39;7.90;;;1.63;;
11614;SDS011;5863;52.832;4.758;2022-10-18T03:46:05;6.63;;;1.45;;
11614;SDS011;5863;52.832;4.758;2022-10-18T03:48:32;8.23;;;1.95;;
11614;SDS011;5863;52.832;4.758;2022-10-18T03:51:02;8.13;;;2.10;;
11614;SDS011;5863;52.832;4.758;2022-10-18T03:53:29;9.65;;;1.77;;
11614;SDS011;5863;52.832;4.758;2022-10-18T03:55:57;6.00;;;1.73;;
11614;SDS011;5863;52.832;4.758;2022-10-18T03:58:23;5.10;;;1.35;;
11614;SDS011;5863;52.832;4.758;2022-10-18T04:00:50;3.53;;;1.30;;
11614;SDS011;5863;52.832;4.758;2022-10-18T04:03:18;4.75;;;1.70;;
11614;SDS011;5863;52.832;4.758;2022-10-18T04:05:46;8.38;;;1.63;;
11614;SDS011;5863;52.832;4.758;2022-10-18T04:08:13;6.55;;;1.85;;
11614;SDS011;5863;52.832;4.758;2022-10-18T04:10:41;9.60;;;2.00;;
11614;SDS011;5863;52.832;4.758;2022-10-18T04:13:09;6.35;;;1.70;;
11614;SDS011;5863;52.832;4.758;2022-10-18T04:15:36;6.05;;;1.77;;
11614;SDS011;5863;52.832;4.758;2022-10-18T04:18:03;6.38;;;1.70;;
11614;SDS011;5863;52.832;4.758;2022-10-18T04:20:29;11.13;;;2.22;;
11614;SDS011;5863;52.832;4.758;2022-10-18T04:22:56;4.03;;;1.77;;
11614;SDS011;5863;52.832;4.758;2022-10-18T04:25:23;4.75;;;1.42;;
11614;SDS011;5863;52.832;4.758;2022-10-18T04:27:50;6.47;;;1.80;;
11614;SDS011;5863;52.832;4.758;2022-10-18T04:30:18;3.83;;;1.70;;
11614;SDS011;5863;52.832;4.758;2022-10-18T04:32:45;7.50;;;1.50;;
11614;SDS011;5863;52.832;4.758;2022-10-18T04:35:11;6.85;;;1.50;;
11614;SDS011;5863;52.832;4.758;2022-10-18T04:37:38;8.30;;;1.92;;
11614;SDS011;5863;52.832;4.758;2022-10-18T04:40:05;6.53;;;1.52;;
11614;SDS011;5863;52.832;4.758;2022-10-18T04:42:33;8.63;;;1.85;;
11614;SDS011;5863;52.832;4.758;2022-10-18T04:45:00;4.35;;;1.52;;
11614;SDS011;5863;52.832;4.758;2022-10-18T04:47:28;6.57;;;1.52;;
11614;SDS011;5863;52.832;4.758;2022-10-18T04:49:54;8.20;;;1.65;;
11614;SDS011;5863;52.832;4.758;2022-10-18T04:52:21;8.93;;;1.75;;
11614;SDS011;5863;52.832;4.758;2022-10-18T04:54:47;5.78;;;1.75;;
11614;SDS011;5863;52.832;4.758;2022-10-18T04:57:14;6.40;;;1.70;;
11614;SDS011;5863;52.832;4.758;2022-10-18T04:59:41;7.78;;;1.70;;
11614;SDS011;5863;52.832;4.758;2022-10-18T05:02:07;8.25;;;2.00;;
11614;SDS011;5863;52.832;4.758;2022-10-18T05:04:35;8.45;;;1.80;;
11614;SDS011;5863;52.832;4.758;2022-10-18T05:07:02;7.28;;;1.90;;
11614;SDS011;5863;52.832;4.758;2022-10-18T05:09:30;9.45;;;1.70;;
11614;SDS011;5863;52.832;4.758;2022-10-18T05:11:58;6.50;;;1.80;;
11614;SDS011;5863;52.832;4.758;2022-10-18T05:14:24;7.47;;;1.50;;
11614;SDS011;5863;52.832;4.758;2022-10-18T05:16:51;8.45;;;1.77;;
11614;SDS011;5863;52.832;4.758;2022-10-18T05:19:21;7.88;;;1.90;;
11614;SDS011;5863;52.832;4.758;2022-10-18T05:21:49;6.90;;;1.77;;
11614;SDS011;5863;52.832;4.758;2022-10-18T05:24:17;7.45;;;1.35;;
11614;SDS011;5863;52.832;4.758;2022-10-18T05:26:44;3.08;;;1.35;;
11614;SDS011;5863;52.832;4.758;2022-10-18T05:29:11;5.82;;;1.80;;
11614;SDS011;5863;52.832;4.758;2022-10-18T05:31:38;3.95;;;1.48;;
11614;SDS011;5863;52.832;4.758;2022-10-18T05:34:04;8.80;;;1.70;;
11614;SDS011;5863;52.832;4.758;2022-10-18T05:36:31;7.65;;;1.55;;
11614;SDS011;5863;52.832;4.758;2022-10-18T05:39:02;5.18;;;1.45;;
11614;SDS011;5863;52.832;4.758;2022-10-18T05:41:29;3.05;;;1.65;;
11614;SDS011;5863;52.832;4.758;2022-10-18T05:44:02;8.43;;;1.90;;
11614;SDS011;5863;52.832;4.758;2022-10-18T05:46:29;3.28;;;1.27;;
11614;SDS011;5863;52.832;4.758;2022-10-18T05:48:56;4.68;;;1.42;;
11614;SDS011;5863;52.832;4.758;2022-10-18T05:51:23;9.77;;;1.60;;
11614;SDS011;5863;52.832;4.758;2022-10-18T05:53:50;5.78;;;1.67;;
11614;SDS011;5863;52.832;4.758;2022-10-18T05:56:18;5.63;;;1.67;;
11614;SDS011;5863;52.832;4.758;2022-10-18T05:58:48;6.80;;;1.50;;
11614;SDS011;5863;52.832;4.758;2022-10-18T06:01:15;7.15;;;1.88;;
11614;SDS011;5863;52.832;4.758;2022-10-18T06:03:42;7.78;;;1.40;;
11614;SDS011;5863;52.832;4.758;2022-10-18T06:06:10;6.72;;;1.42;;
11614;SDS011;5863;52.832;4.758;2022-10-18T06:08:38;6.07;;;1.77;;
11614;SDS011;5863;52.832;4.758;2022-10-18T06:11:06;4.55;;;1.90;;
11614;SDS011;5863;52.832;4.758;2022-10-18T06:13:37;8.63;;;1.77;;
11614;SDS011;5863;52.832;4.758;2022-10-18T06:16:05;3.95;;;1.33;;
11614;SDS011;5863;52.832;4.758;2022-10-18T06:18:32;8.60;;;1.92;;
11614;SDS011;5863;52.832;4.758;2022-10-18T06:20:59;3.97;;;1.50;;
11614;SDS011;5863;52.832;4.758;2022-10-18T06:23:26;10.63;;;2.10;;
11614;SDS011;5863;52.832;4.758;2022-10-18T06:25:53;7.10;;;1.70;;
11614;SDS011;5863;52.832;4.758;2022-10-18T06:28:24;4.72;;;1.77;;
11614;SDS011;5863;52.832;4.758;2022-10-18T06:30:52;6.07;;;1.55;;
11614;SDS011;5863;52.832;4.758;2022-10-18T06:33:19;6.82;;;1.63;;
11614;SDS011;5863;52.832;4.758;2022-10-18T06:35:52;8.15;;;1.70;;
11614;SDS011;5863;52.832;4.758;2022-10-18T06:38:20;6.40;;;1.75;;
11614;SDS011;5863;52.832;4.758;2022-10-18T06:40:47;6.15;;;2.13;;
11614;SDS011;5863;52.832;4.758;2022-10-18T06:43:14;6.93;;;1.80;;
11614;SDS011;5863;52.832;4.758;2022-10-18T06:45:40;6.10;;;1.95;;
11614;SDS011;5863;52.832;4.758;2022-10-18T06:48:08;7.72;;;1.35;;
11614;SDS011;5863;52.832;4.758;2022-10-18T06:50:35;8.15;;;1.98;;
11614;SDS011;5863;52.832;4.758;2022-10-18T06:53:02;8.05;;;1.67;;
11614;SDS011;5863;52.832;4.758;2022-10-18T06:55:30;6.55;;;1.58;;
11614;SDS011;5863;52.832;4.758;2022-10-18T06:57:57;5.50;;;1.85;;
11614;SDS011;5863;52.832;4.758;2022-10-18T07:00:26;7.13;;;1.63;;
11614;SDS011;5863;52.832;4.758;2022-10-18T07:02:52;6.78;;;2.10;;
11614;SDS011;5863;52.832;4.758;2022-10-18T07:05:20;8.00;;;1.88;;
11614;SDS011;5863;52.832;4.758;2022-10-18T07:07:47;7.55;;;2.35;;
11614;SDS011;5863;52.832;4.758;2022-10-18T07:10:14;9.70;;;1.77;;
11614;SDS011;5863;52.832;4.758;2022-10-18T07:12:40;6.05;;;2.28;;
11614;SDS011;5863;52.832;4.758;2022-10-18T07:15:07;7.43;;;1.90;;
11614;SDS011;5863;52.832;4.758;2022-10-18T07:17:35;6.75;;;1.67;;
11614;SDS011;5863;52.832;4.758;2022-10-18T07:20:01;8.02;;;1.80;;
11614;SDS011;5863;52.832;4.758;2022-10-18T07:22:30;4.38;;;1.40;;
11614;SDS011;5863;52.832;4.758;2022-10-18T07:24:58;4.65;;;1.75;;
11614;SDS011;5863;52.832;4.758;2022-10-18T07:27:24;4.03;;;1.33;;
11614;SDS011;5863;52.832;4.758;2022-10-18T07:29:52;8.07;;;1.88;;
11614;SDS011;5863;52.832;4.758;2022-10-18T07:32:19;6.38;;;1.30;;
11614;SDS011;5863;52.832;4.758;2022-10-18T07:34:45;6.97;;;1.60;;
11614;SDS011;5863;52.832;4.758;2022-10-18T07:37:12;7.78;;;1.80;;
11614;SDS011;5863;52.832;4.758;2022-10-18T07:39:40;4.72;;;1.50;;
11614;SDS011;5863;52.832;4.758;2022-10-18T07:42:07;6.28;;;1.42;;
11614;SDS011;5863;52.832;4.758;2022-10-18T07:44:33;3.80;;;1.25;;
11614;SDS011;5863;52.832;4.758;2022-10-18T07:47:00;5.05;;;1.63;;
11614;SDS011;5863;52.832;4.758;2022-10-18T07:49:27;3.92;;;1.42;;
11614;SDS011;5863;52.832;4.758;2022-10-18T07:51:53;4.63;;;1.20;;
11614;SDS011;5863;52.832;4.758;2022-10-18T07:54:20;9.45;;;1.70;;
11614;SDS011;5863;52.832;4.758;2022-10-18T07:56:48;6.38;;;1.85;;
11614;SDS011;5863;52.832;4.758;2022-10-18T07:59:15;4.47;;;1.75;;
11614;SDS011;5863;52.832;4.758;2022-10-18T08:01:42;9.38;;;1.95;;
11614;SDS011;5863;52.832;4.758;2022-10-18T08:04:08;9.52;;;1.88;;
11614;SDS011;5863;52.832;4.758;2022-10-18T08:06:38;8.73;;;2.10;;
11614;SDS011;5863;52.832;4.758;2022-10-18T08:09:04;9.15;;;1.95;;
11614;SDS011;5863;52.832;4.758;2022-10-18T08:11:31;6.75;;;1.83;;
11614;SDS011;5863;52.832;4.758;2022-10-18T08:14:00;6.47;;;1.85;;
11614;SDS011;5863;52.832;4.758;2022-10-18T08:16:27;6.18;;;2.00;;
11614;SDS011;5863;52.832;4.758;2022-10-18T08:18:56;7.80;;;1.70;;
11614;SDS011;5863;52.832;4.758;2022-10-18T08:21:23;8.10;;;2.00;;
11614;SDS011;5863;52.832;4.758;2022-10-18T08:23:50;9.32;;;1.63;;
11614;SDS011;5863;52.832;4.758;2022-10-18T08:26:19;10.45;;;2.05;;
11614;SDS011;5863;52.832;4.758;2022-10-18T08:28:49;8.38;;;1.95;;
11614;SDS011;5863;52.832;4.758;2022-10-18T08:31:17;10.32;;;1.92;;
11614;SDS011;5863;52.832;4.758;2022-10-18T08:33:45;9.55;;;1.92;;
11614;SDS011;5863;52.832;4.758;2022-10-18T08:36:12;9.55;;;2.08;;
11614;SDS011;5863;52.832;4.758;2022-10-18T08:38:40;7.28;;;1.67;;
11614;SDS011;5863;52.832;4.758;2022-10-18T08:41:27;5.43;;;2.08;;
11614;SDS011;5863;52.832;4.758;2022-10-18T08:44:06;5.85;;;1.92;;
11614;SDS011;5863;52.832;4.758;2022-10-18T08:46:43;8.80;;;1.83;;
11614;SDS011;5863;52.832;4.758;2022-10-18T08:49:14;6.75;;;1.77;;
11614;SDS011;5863;52.832;4.758;2022-10-18T08:51:47;9.25;;;1.58;;
11614;SDS011;5863;52.832;4.758;2022-10-18T08:54:17;7.85;;;1.77;;
11614;SDS011;5863;52.832;4.758;2022-10-18T08:56:53;8.30;;;1.75;;
11614;SDS011;5863;52.832;4.758;2022-10-18T08:59:23;8.82;;;1.58;;
11614;SDS011;5863;52.832;4.758;2022-10-18T09:01:54;6.65;;;1.65;;
11614;SDS011;5863;52.832;4.758;2022-10-18T09:04:31;11.13;;;2.42;;
11614;SDS011;5863;52.832;4.758;2022-10-18T09:07:11;7.38;;;1.70;;
11614;SDS011;5863;52.832;4.758;2022-10-18T09:09:51;4.93;;;1.73;;
11614;SDS011;5863;52.832;4.758;2022-10-18T09:12:28;8.38;;;1.75;;
11614;SDS011;5863;52.832;4.758;2022-10-18T09:15:09;6.53;;;1.30;;
11614;SDS011;5863;52.832;4.758;2022-10-18T09:17:49;4.72;;;1.15;;
11614;SDS011;5863;52.832;4.758;2022-10-18T09:20:25;3.38;;;1.60;;
11614;SDS011;5863;52.832;4.758;2022-10-18T09:22:58;7.80;;;1.38;;
11614;SDS011;5863;52.832;4.758;2022-10-18T09:25:32;5.60;;;1.30;;
11614;SDS011;5863;52.832;4.758;2022-10-18T09:28:12;6.30;;;1.55;;
11614;SDS011;5863;52.832;4.758;2022-10-18T09:30:43;6.20;;;1.55;;
11614;SDS011;5863;52.832;4.758;2022-10-18T09:33:24;6.40;;;1.50;;
11614;SDS011;5863;52.832;4.758;2022-10-18T09:36:00;5.25;;;1.60;;
11614;SDS011;5863;52.832;4.758;2022-10-18T09:38:30;6.53;;;1.50;;
11614;SDS011;5863;52.832;4.758;2022-10-18T09:40:59;10.38;;;1.63;;
11614;SDS011;5863;52.832;4.758;2022-10-18T09:43:35;4.60;;;1.52;;
11614;SDS011;5863;52.832;4.758;2022-10-18T09:46:08;9.63;;;1.80;;
11614;SDS011;5863;52.832;4.758;2022-10-18T09:48:39;7.45;;;1.38;;
11614;SDS011;5863;52.832;4.758;2022-10-18T09:51:11;7.82;;;1.85;;
11614;SDS011;5863;52.832;4.758;2022-10-18T09:53:47;7.25;;;1.60;;
11614;SDS011;5863;52.832;4.758;2022-10-18T09:56:22;8.35;;;1.70;;
11614;SDS011;5863;52.832;4.758;2022-10-18T09:58:54;7.40;;;1.80;;
11614;SDS011;5863;52.832;4.758;2022-10-18T10:01:22;7.55;;;1.70;;
11614;SDS011;5863;52.832;4.758;2022-10-18T10:03:51;5.30;;;1.38;;
11614;SDS011;5863;52.832;4.758;2022-10-18T10:06:23;7.45;;;1.40;;
11614;SDS011;5863;52.832;4.758;2022-10-18T10:08:57;8.45;;;1.67;;
11614;SDS011;5863;52.832;4.758;2022-10-18T10:11:30;7.03;;;1.67;;
11614;SDS011;5863;52.832;4.758;2022-10-18T10:14:11;10.07;;;1.70;;
11614;SDS011;5863;52.832;4.758;2022-10-18T10:16:52;11.65;;;2.00;;
11614;SDS011;5863;52.832;4.758;2022-10-18T10:19:26;5.70;;;1.58;;
11614;SDS011;5863;52.832;4.758;2022-10-18T10:21:57;6.55;;;1.50;;
11614;SDS011;5863;52.832;4.758;2022-10-18T10:24:31;8.02;;;1.88;;
11614;SDS011;5863;52.832;4.758;2022-10-18T10:27:03;5.22;;;1.52;;
11614;SDS011;5863;52.832;4.758;2022-10-18T10:32:21;7.10;;;1.83;;
11614;SDS011;5863;52.832;4.758;2022-10-18T10:34:52;7.50;;;1.48;;
11614;SDS011;5863;52.832;4.758;2022-10-18T10:37:26;4.90;;;1.25;;
11614;SDS011;5863;52.832;4.758;2022-10-18T10:40:09;11.65;;;1.77;;
11614;SDS011;5863;52.832;4.758;2022-10-18T10:42:47;9.80;;;2.13;;
11614;SDS011;5863;52.832;4.758;2022-10-18T10:45:19;9.32;;;2.20;;
11614;SDS011;5863;52.832;4.758;2022-10-18T10:47:47;8.40;;;1.65;;
11614;SDS011;5863;52.832;4.758;2022-10-18T10:50:21;6.90;;;1.63;;
11614;SDS011;5863;52.832;4.758;2022-10-18T10:52:51;5.53;;;1.83;;
11614;SDS011;5863;52.832;4.758;2022-10-18T10:55:18;6.20;;;1.90;;
11614;SDS011;5863;52.832;4.758;2022-10-18T10:57:48;4.88;;;1.30;;
11614;SDS011;5863;52.832;4.758;2022-10-18T11:00:37;6.95;;;1.60;;
11614;SDS011;5863;52.832;4.758;2022-10-18T11:03:06;5.78;;;1.60;;
11614;SDS011;5863;52.832;4.758;2022-10-18T11:05:43;5.97;;;1.98;;
11614;SDS011;5863;52.832;4.758;2022-10-18T11:08:12;9.60;;;1.80;;
11614;SDS011;5863;52.832;4.758;2022-10-18T11:10:46;7.43;;;1.92;;
11614;SDS011;5863;52.832;4.758;2022-10-18T11:13:21;8.10;;;1.80;;
11614;SDS011;5863;52.832;4.758;2022-10-18T11:15:58;5.57;;;1.60;;
11614;SDS011;5863;52.832;4.758;2022-10-18T11:18:29;13.02;;;2.22;;
11614;SDS011;5863;52.832;4.758;2022-10-18T11:21:01;10.20;;;1.98;;
11614;SDS011;5863;52.832;4.758;2022-10-18T11:23:32;10.75;;;1.83;;
11614;SDS011;5863;52.832;4.758;2022-10-18T11:26:02;8.20;;;2.20;;
11614;SDS011;5863;52.832;4.758;2022-10-18T11:28:44;6.22;;;1.98;;
11614;SDS011;5863;52.832;4.758;2022-10-18T11:31:26;6.30;;;1.83;;
11614;SDS011;5863;52.832;4.758;2022-10-18T11:34:00;5.07;;;1.60;;
11614;SDS011;5863;52.832;4.758;2022-10-18T11:36:43;8.25;;;1.98;;
11614;SDS011;5863;52.832;4.758;2022-10-18T11:39:18;13.25;;;4.00;;
11614;SDS011;5863;52.832;4.758;2022-10-18T11:41:57;8.32;;;1.77;;
11614;SDS011;5863;52.832;4.758;2022-10-18T11:44:30;10.43;;;2.03;;
11614;SDS011;5863;52.832;4.758;2022-10-18T11:47:03;8.77;;;1.95;;
11614;SDS011;5863;52.832;4.758;2022-10-18T11:52:32;9.45;;;1.73;;
11614;SDS011;5863;52.832;4.758;2022-10-18T11:55:11;4.70;;;1.65;;
11614;SDS011;5863;52.832;4.758;2022-10-18T11:57:47;4.60;;;1.35;;
11614;SDS011;5863;52.832;4.758;2022-10-18T12:00:24;8.32;;;1.70;;
11614;SDS011;5863;52.832;4.758;2022-10-18T12:03:02;5.18;;;1.48;;
11614;SDS011;5863;52.832;4.758;2022-10-18T12:05:39;7.47;;;1.50;;
11614;SDS011;5863;52.832;4.758;2022-10-18T12:08:11;6.93;;;1.88;;
11614;SDS011;5863;52.832;4.758;2022-10-18T12:10:41;10.75;;;1.83;;
11614;SDS011;5863;52.832;4.758;2022-10-18T12:13:11;9.20;;;1.60;;
11614;SDS011;5863;52.832;4.758;2022-10-18T12:15:42;11.38;;;1.58;;
11614;SDS011;5863;52.832;4.758;2022-10-18T12:18:10;6.28;;;1.67;;
11614;SDS011;5863;52.832;4.758;2022-10-18T12:20:40;7.43;;;1.92;;
11614;SDS011;5863;52.832;4.758;2022-10-18T12:23:12;10.07;;;1.73;;
11614;SDS011;5863;52.832;4.758;2022-10-18T12:25:42;7.90;;;1.80;;
11614;SDS011;5863;52.832;4.758;2022-10-18T12:28:12;4.35;;;1.60;;
11614;SDS011;5863;52.832;4.758;2022-10-18T12:30:45;7.47;;;1.83;;
11614;SDS011;5863;52.832;4.758;2022-10-18T12:33:18;9.07;;;1.83;;
11614;SDS011;5863;52.832;4.758;2022-10-18T12:35:52;6.18;;;1.50;;
11614;SDS011;5863;52.832;4.758;2022-10-18T12:38:32;8.55;;;1.88;;
11614;SDS011;5863;52.832;4.758;2022-10-18T12:41:00;7.35;;;1.80;;
11614;SDS011;5863;52.832;4.758;2022-10-18T12:43:28;9.65;;;2.13;;
11614;SDS011;5863;52.832;4.758;2022-10-18T12:46:01;9.02;;;1.90;;
11614;SDS011;5863;52.832;4.758;2022-10-18T12:48:31;6.70;;;1.60;;
11614;SDS011;5863;52.832;4.758;2022-10-18T12:51:02;8.23;;;1.80;;
11614;SDS011;5863;52.832;4.758;2022-10-18T12:53:33;9.73;;;2.03;;
11614;SDS011;5863;52.832;4.758;2022-10-18T13:02:25;7.15;;;1.58;;
11614;SDS011;5863;52.832;4.758;2022-10-18T13:04:53;6.97;;;1.70;;
11614;SDS011;5863;52.832;4.758;2022-10-18T13:07:31;9.05;;;1.98;;
11614;SDS011;5863;52.832;4.758;2022-10-18T13:13:15;8.55;;;1.65;;
11614;SDS011;5863;52.832;4.758;2022-10-18T13:15:55;6.95;;;1.83;;
11614;SDS011;5863;52.832;4.758;2022-10-18T13:18:32;7.70;;;1.58;;
11614;SDS011;5863;52.832;4.758;2022-10-18T13:21:08;4.85;;;1.45;;
11614;SDS011;5863;52.832;4.758;2022-10-18T13:23:41;7.75;;;1.70;;
11614;SDS011;5863;52.832;4.758;2022-10-18T13:26:22;11.02;;;1.70;;
11614;SDS011;5863;52.832;4.758;2022-10-18T13:28:57;6.45;;;1.40;;
11614;SDS011;5863;52.832;4.758;2022-10-18T13:31:34;5.65;;;1.75;;
11614;SDS011;5863;52.832;4.758;2022-10-18T13:34:15;9.88;;;1.63;;
11614;SDS011;5863;52.832;4.758;2022-10-18T13:36:54;7.43;;;1.55;;
11614;SDS011;5863;52.832;4.758;2022-10-18T13:39:22;5.00;;;1.30;;
11614;SDS011;5863;52.832;4.758;2022-10-18T13:44:53;5.40;;;1.65;;
11614;SDS011;5863;52.832;4.758;2022-10-18T13:47:33;7.05;;;1.65;;
11614;SDS011;5863;52.832;4.758;2022-10-18T13:50:06;4.25;;;1.13;;
11614;SDS011;5863;52.832;4.758;2022-10-18T13:55:53;5.05;;;1.45;;
11614;SDS011;5863;52.832;4.758;2022-10-18T13:58:31;7.85;;;1.70;;
11614;SDS011;5863;52.832;4.758;2022-10-18T14:01:14;8.65;;;1.48;;
11614;SDS011;5863;52.832;4.758;2022-10-18T14:03:59;7.53;;;1.70;;
11614;SDS011;5863;52.832;4.758;2022-10-18T14:06:46;5.05;;;1.60;;
11614;SDS011;5863;52.832;4.758;2022-10-18T14:09:15;7.72;;;1.83;;
11614;SDS011;5863;52.832;4.758;2022-10-18T14:11:45;8.25;;;1.77;;
11614;SDS011;5863;52.832;4.758;2022-10-18T14:14:18;5.13;;;1.70;;
11614;SDS011;5863;52.832;4.758;2022-10-18T14:16:51;5.25;;;1.80;;
11614;SDS011;5863;52.832;4.758;2022-10-18T14:19:27;10.10;;;1.85;;
11614;SDS011;5863;52.832;4.758;2022-10-18T14:22:03;6.60;;;1.67;;
11614;SDS011;5863;52.832;4.758;2022-10-18T14:24:37;3.92;;;1.70;;
11614;SDS011;5863;52.832;4.758;2022-10-18T14:27:12;6.13;;;1.55;;
11614;SDS011;5863;52.832;4.758;2022-10-18T14:29:45;8.43;;;1.65;;
11614;SDS011;5863;52.832;4.758;2022-10-18T14:32:24;4.32;;;1.50;;
11614;SDS011;5863;52.832;4.758;2022-10-18T14:34:52;6.97;;;1.80;;
11614;SDS011;5863;52.832;4.758;2022-10-18T14:37:20;7.10;;;1.92;;
11614;SDS011;5863;52.832;4.758;2022-10-18T14:39:52;6.18;;;1.90;;
11614;SDS011;5863;52.832;4.758;2022-10-18T14:42:19;4.38;;;1.50;;
11614;SDS011;5863;52.832;4.758;2022-10-18T14:44:49;9.55;;;1.63;;
11614;SDS011;5863;52.832;4.758;2022-10-18T14:47:16;7.22;;;1.83;;
11614;SDS011;5863;52.832;4.758;2022-10-18T14:49:46;9.20;;;1.75;;
11614;SDS011;5863;52.832;4.758;2022-10-18T14:52:15;7.78;;;1.70;;
11614;SDS011;5863;52.832;4.758;2022-10-18T14:54:43;6.57;;;2.08;;
11614;SDS011;5863;52.832;4.758;2022-10-18T14:57:14;7.38;;;1.58;;
11614;SDS011;5863;52.832;4.758;2022-10-18T14:59:45;6.07;;;1.90;;
11614;SDS011;5863;52.832;4.758;2022-10-18T15:02:16;11.50;;;2.17;;
11614;SDS011;5863;52.832;4.758;2022-10-18T15:04:53;8.38;;;1.80;;
11614;SDS011;5863;52.832;4.758;2022-10-18T15:07:21;7.72;;;1.95;;
11614;SDS011;5863;52.832;4.758;2022-10-18T15:09:50;6.40;;;2.03;;
11614;SDS011;5863;52.832;4.758;2022-10-18T15:12:18;6.72;;;2.03;;
11614;SDS011;5863;52.832;4.758;2022-10-18T15:14:45;7.13;;;1.90;;
11614;SDS011;5863;52.832;4.758;2022-10-18T15:17:15;6.15;;;1.52;;
11614;SDS011;5863;52.832;4.758;2022-10-18T15:19:53;6.50;;;2.17;;
11614;SDS011;5863;52.832;4.758;2022-10-18T15:22:22;9.77;;;2.00;;
11614;SDS011;5863;52.832;4.758;2022-10-18T15:25:03;8.32;;;1.88;;
11614;SDS011;5863;52.832;4.758;2022-10-18T15:27:36;4.88;;;1.75;;
11614;SDS011;5863;52.832;4.758;2022-10-18T15:30:06;8.13;;;1.67;;
11614;SDS011;5863;52.832;4.758;2022-10-18T15:32:45;4.18;;;1.52;;
11614;SDS011;5863;52.832;4.758;2022-10-18T15:35:14;8.15;;;1.75;;
11614;SDS011;5863;52.832;4.758;2022-10-18T15:37:44;8.55;;;1.75;;
11614;SDS011;5863;52.832;4.758;2022-10-18T15:40:28;7.53;;;2.05;;
11614;SDS011;5863;52.832;4.758;2022-10-18T15:43:03;5.78;;;1.90;;
11614;SDS011;5863;52.832;4.758;2022-10-18T15:45:52;7.18;;;2.10;;
11614;SDS011;5863;52.832;4.758;2022-10-18T15:48:22;5.90;;;1.77;;
11614;SDS011;5863;52.832;4.758;2022-10-18T15:50:51;5.07;;;1.80;;